Flight OLY938A

  • Submitted By: Stavros Sarikas
  • Departure Airport: Eleftherios Venizelos International Airport (LGAV)
  • Arrival Airport: Samos Airport (LGSM)
  • Aircraft: A320-200 (SX-OAH)
  • Flight Time: 00.45
  • Date Submitted: 26/02/2018
  • Route: VARIX L995 RIPLI R32 IKARO G18 URNIL
  • Status: Accepted
Flight Details
Gross Revenue:
(138 load / € 50.00 per unit
€ 6, 900.00
Fuel Cost:
(1657 fuel used @ 0.19 / unit)
€ 314.83

Additional Log Information:

View Log

Aircraft Used in flight is Airbus A320 British Airways G-EUUU
17:11 Boarding
17:11 Navigation Lights ON at 320 Feet
17:11 Beacon Lights ON at 320 Feet
17:11 Brakes are On
17:12 Engine 2 Started
17:14 Engine 1 Started
17:14 Brakes are Released
17:15 Pushing back
17:16 Flaps 3 Selected at 320ft and 0kts
17:16 Taxi Lights ON at 320 Feet
17:17 Landing Lights ON at 320 AGL
17:17 Strobe Lights ON at 320 Feet
17:20 You Took off @ 141 Knots and Flaps at Position 3 With a heading of 217 Degrees
Departure Weather LGAV 261450Z 25007KT 220V290 9999 FEW020 BKN035 14/05 Q0999 NOSIG
Departure Coordinates 37.9319306295275/ 23.9512009572194
Takeoff Weight=58673KG Fuel Weight=3830KG
17:20 Landing Gear Up @ 147 Knots and 390 Feet
17:20 Taxi Lights OFF at 400 Feet
17:21 You exceeded maximum bank angle
17:21 Flaps 2 Selected at 1890ft and 153kts
17:21 Flaps 0 Selected at 2130ft and 183kts
17:24 Above FL100 you need to switch of the landing lights
17:24 Landing Lights OFF at 10330 AGL
17:28 TOC Reached
17:45 Landing Lights ON at 9810 AGL
17:51 Flaps 1 Selected at 2490ft and 225kts
17:52 Flaps 3 Selected at 1960ft and 187kts
17:52 Landing Gear Down @ 182 Knots and 1910 Feet
17:53 Flaps 4 Selected at 1840ft and 165kts
17:53 Taxi Lights ON at 1810 Feet
17:53 Flaps 5 Selected at 1800ft and 157kts
17:55 You Landed @ 127 Knots with -50 Vertical Speed With a heading of 274 and with 1.5648 G Force
Arrival Weather: LGSM 261520Z 28007KT 9999 FEW016TCU SCT018 13/11 Q0998
Arrival Coordinates 37.6897794971531/ 26.9186469286611
Landing Weight=57216KG Fuel Weight=2372KG
17:55 Taxiing to gate
17:55 Landing Lights OFF at 30 AGL
17:55 Strobe Lights OFF at 30 Feet
17:55 Flaps 0 Selected at 30ft and 30kts
17:55 Paused
17:56 Brakes are On
17:56 In Air Refuel Suspected
17:56 Unpaused
Pirep logged with OA Virtual Tracking 1.0.2.6

Route Map